sensor_id;sensor_type;location;lat;lon;timestamp;pressure;altitude;pressure_sealevel;temperature
20289;BMP180;10303;51.960;8.372;2023-04-24T00:00:29;99020.00;;;15.20
20289;BMP180;10303;51.960;8.372;2023-04-24T00:02:55;99010.00;;;15.20
20289;BMP180;10303;51.960;8.372;2023-04-24T00:05:23;99010.00;;;15.20
20289;BMP180;10303;51.960;8.372;2023-04-24T00:07:50;99010.00;;;15.20
20289;BMP180;10303;51.960;8.372;2023-04-24T00:10:18;99009.00;;;15.20
20289;BMP180;10303;51.960;8.372;2023-04-24T00:12:44;99006.00;;;15.10
20289;BMP180;10303;51.960;8.372;2023-04-24T00:15:12;99008.00;;;15.10
20289;BMP180;10303;51.960;8.372;2023-04-24T00:17:38;98997.00;;;15.10
20289;BMP180;10303;51.960;8.372;2023-04-24T00:20:06;99009.00;;;15.10
20289;BMP180;10303;51.960;8.372;2023-04-24T00:22:33;99003.00;;;15.10
20289;BMP180;10303;51.960;8.372;2023-04-24T00:24:59;99007.00;;;15.10
20289;BMP180;10303;51.960;8.372;2023-04-24T00:27:25;99001.00;;;15.10
20289;BMP180;10303;51.960;8.372;2023-04-24T00:29:51;98999.00;;;15.10
20289;BMP180;10303;51.960;8.372;2023-04-24T00:32:17;98992.00;;;15.10
20289;BMP180;10303;51.960;8.372;2023-04-24T00:34:43;98999.00;;;15.10
20289;BMP180;10303;51.960;8.372;2023-04-24T00:37:09;98995.00;;;15.10
20289;BMP180;10303;51.960;8.372;2023-04-24T00:39:36;98989.00;;;15.10
20289;BMP180;10303;51.960;8.372;2023-04-24T00:42:02;98996.00;;;15.10
20289;BMP180;10303;51.960;8.372;2023-04-24T00:44:28;98994.00;;;15.00
20289;BMP180;10303;51.960;8.372;2023-04-24T00:46:55;98993.00;;;15.00
20289;BMP180;10303;51.960;8.372;2023-04-24T00:49:22;98992.00;;;15.00
20289;BMP180;10303;51.960;8.372;2023-04-24T00:51:48;98991.00;;;15.00
20289;BMP180;10303;51.960;8.372;2023-04-24T00:54:16;98981.00;;;15.00
20289;BMP180;10303;51.960;8.372;2023-04-24T00:56:42;98989.00;;;15.10
20289;BMP180;10303;51.960;8.372;2023-04-24T00:59:13;98981.00;;;15.00
20289;BMP180;10303;51.960;8.372;2023-04-24T01:01:40;98978.00;;;15.10
20289;BMP180;10303;51.960;8.372;2023-04-24T01:04:09;98977.00;;;15.10
20289;BMP180;10303;51.960;8.372;2023-04-24T01:06:39;98975.00;;;15.00
20289;BMP180;10303;51.960;8.372;2023-04-24T01:09:06;98971.00;;;15.10
20289;BMP180;10303;51.960;8.372;2023-04-24T01:11:37;98975.00;;;15.00
20289;BMP180;10303;51.960;8.372;2023-04-24T01:14:04;98979.00;;;15.00
20289;BMP180;10303;51.960;8.372;2023-04-24T01:16:30;98968.00;;;15.00
20289;BMP180;10303;51.960;8.372;2023-04-24T01:18:56;98975.00;;;15.00
20289;BMP180;10303;51.960;8.372;2023-04-24T01:21:26;98972.00;;;15.00
20289;BMP180;10303;51.960;8.372;2023-04-24T01:23:56;98982.00;;;15.00
20289;BMP180;10303;51.960;8.372;2023-04-24T01:26:23;98968.00;;;15.00
20289;BMP180;10303;51.960;8.372;2023-04-24T01:28:52;98971.00;;;15.00
20289;BMP180;10303;51.960;8.372;2023-04-24T01:31:18;98975.00;;;15.00
20289;BMP180;10303;51.960;8.372;2023-04-24T01:33:45;98967.00;;;15.00
20289;BMP180;10303;51.960;8.372;2023-04-24T01:36:11;98970.00;;;14.90
20289;BMP180;10303;51.960;8.372;2023-04-24T01:38:37;98968.00;;;14.90
20289;BMP180;10303;51.960;8.372;2023-04-24T01:41:04;98960.00;;;14.90
20289;BMP180;10303;51.960;8.372;2023-04-24T01:43:30;98968.00;;;14.90
20289;BMP180;10303;51.960;8.372;2023-04-24T01:45:57;98968.00;;;14.80
20289;BMP180;10303;51.960;8.372;2023-04-24T01:48:24;98966.00;;;14.80
20289;BMP180;10303;51.960;8.372;2023-04-24T01:50:50;98965.00;;;14.70
20289;BMP180;10303;51.960;8.372;2023-04-24T01:53:16;98956.00;;;14.70
20289;BMP180;10303;51.960;8.372;2023-04-24T01:55:42;98975.00;;;14.70
20289;BMP180;10303;51.960;8.372;2023-04-24T01:58:08;98973.00;;;14.60
20289;BMP180;10303;51.960;8.372;2023-04-24T02:00:34;98972.00;;;14.60
20289;BMP180;10303;51.960;8.372;2023-04-24T02:03:00;98968.00;;;14.60
20289;BMP180;10303;51.960;8.372;2023-04-24T02:05:28;98961.00;;;14.50
20289;BMP180;10303;51.960;8.372;2023-04-24T02:07:55;98970.00;;;14.50
20289;BMP180;10303;51.960;8.372;2023-04-24T02:10:21;98968.00;;;14.50
20289;BMP180;10303;51.960;8.372;2023-04-24T02:12:47;98975.00;;;14.40
20289;BMP180;10303;51.960;8.372;2023-04-24T02:15:14;98976.00;;;14.40
20289;BMP180;10303;51.960;8.372;2023-04-24T02:17:40;98971.00;;;14.40
20289;BMP180;10303;51.960;8.372;2023-04-24T02:20:07;98978.00;;;14.30
20289;BMP180;10303;51.960;8.372;2023-04-24T02:22:33;98967.00;;;14.30
20289;BMP180;10303;51.960;8.372;2023-04-24T02:25:01;98972.00;;;14.20
20289;BMP180;10303;51.960;8.372;2023-04-24T02:27:27;98974.00;;;14.20
20289;BMP180;10303;51.960;8.372;2023-04-24T02:29:53;98981.00;;;14.20
20289;BMP180;10303;51.960;8.372;2023-04-24T02:32:19;98965.00;;;14.20
20289;BMP180;10303;51.960;8.372;2023-04-24T02:34:45;98979.00;;;14.10
20289;BMP180;10303;51.960;8.372;2023-04-24T02:37:12;98981.00;;;14.10
20289;BMP180;10303;51.960;8.372;2023-04-24T02:39:38;98965.00;;;14.10
20289;BMP180;10303;51.960;8.372;2023-04-24T02:42:04;98976.00;;;14.10
20289;BMP180;10303;51.960;8.372;2023-04-24T02:44:30;98981.00;;;14.00
20289;BMP180;10303;51.960;8.372;2023-04-24T02:46:56;98983.00;;;14.00
20289;BMP180;10303;51.960;8.372;2023-04-24T02:49:22;98975.00;;;14.00
20289;BMP180;10303;51.960;8.372;2023-04-24T02:51:48;98979.00;;;14.00
20289;BMP180;10303;51.960;8.372;2023-04-24T02:54:14;98973.00;;;14.00
20289;BMP180;10303;51.960;8.372;2023-04-24T02:56:40;98971.00;;;14.00
20289;BMP180;10303;51.960;8.372;2023-04-24T02:59:08;98982.00;;;14.00
20289;BMP180;10303;51.960;8.372;2023-04-24T03:01:34;98974.00;;;14.00
20289;BMP180;10303;51.960;8.372;2023-04-24T03:04:00;98976.00;;;14.00
20289;BMP180;10303;51.960;8.372;2023-04-24T03:06:26;98979.00;;;14.00
20289;BMP180;10303;51.960;8.372;2023-04-24T03:08:53;98976.00;;;14.00
20289;BMP180;10303;51.960;8.372;2023-04-24T03:11:19;98977.00;;;14.00
20289;BMP180;10303;51.960;8.372;2023-04-24T03:13:45;98974.00;;;14.00
20289;BMP180;10303;51.960;8.372;2023-04-24T03:16:11;98975.00;;;14.00
20289;BMP180;10303;51.960;8.372;2023-04-24T03:18:37;98980.00;;;14.00
20289;BMP180;10303;51.960;8.372;2023-04-24T03:21:05;98979.00;;;14.00
20289;BMP180;10303;51.960;8.372;2023-04-24T03:23:32;98977.00;;;14.00
20289;BMP180;10303;51.960;8.372;2023-04-24T03:25:57;98972.00;;;14.00
20289;BMP180;10303;51.960;8.372;2023-04-24T03:28:24;98968.00;;;14.00
20289;BMP180;10303;51.960;8.372;2023-04-24T03:31:09;98977.00;;;14.10
20289;BMP180;10303;51.960;8.372;2023-04-24T03:33:36;98974.00;;;14.10
20289;BMP180;10303;51.960;8.372;2023-04-24T03:36:02;98974.00;;;14.10
20289;BMP180;10303;51.960;8.372;2023-04-24T03:38:36;98959.00;;;14.10
20289;BMP180;10303;51.960;8.372;2023-04-24T03:41:24;98965.00;;;14.10
20289;BMP180;10303;51.960;8.372;2023-04-24T03:43:57;98972.00;;;14.10
20289;BMP180;10303;51.960;8.372;2023-04-24T03:46:24;98963.00;;;14.10
20289;BMP180;10303;51.960;8.372;2023-04-24T03:48:54;98965.00;;;14.10
20289;BMP180;10303;51.960;8.372;2023-04-24T03:51:25;98968.00;;;14.10
20289;BMP180;10303;51.960;8.372;2023-04-24T03:53:55;98963.00;;;14.00
20289;BMP180;10303;51.960;8.372;2023-04-24T03:56:23;98968.00;;;14.00
20289;BMP180;10303;51.960;8.372;2023-04-24T03:58:49;98961.00;;;14.00
20289;BMP180;10303;51.960;8.372;2023-04-24T04:01:15;98956.00;;;14.00
20289;BMP180;10303;51.960;8.372;2023-04-24T04:04:01;98972.00;;;14.00
20289;BMP180;10303;51.960;8.372;2023-04-24T04:06:29;98975.00;;;14.00
20289;BMP180;10303;51.960;8.372;2023-04-24T04:08:58;98976.00;;;13.90
20289;BMP180;10303;51.960;8.372;2023-04-24T04:11:26;98982.00;;;13.90
20289;BMP180;10303;51.960;8.372;2023-04-24T04:13:52;98981.00;;;13.90
20289;BMP180;10303;51.960;8.372;2023-04-24T04:16:20;98983.00;;;13.90
20289;BMP180;10303;51.960;8.372;2023-04-24T04:18:48;98986.00;;;13.90
20289;BMP180;10303;51.960;8.372;2023-04-24T04:21:15;98987.00;;;13.90
20289;BMP180;10303;51.960;8.372;2023-04-24T04:23:42;98991.00;;;13.90
20289;BMP180;10303;51.960;8.372;2023-04-24T04:26:21;99003.00;;;13.90
20289;BMP180;10303;51.960;8.372;2023-04-24T04:29:11;98999.00;;;13.80
20289;BMP180;10303;51.960;8.372;2023-04-24T04:31:41;99010.00;;;13.80
20289;BMP180;10303;51.960;8.372;2023-04-24T04:34:11;99014.00;;;13.80
20289;BMP180;10303;51.960;8.372;2023-04-24T04:36:38;99017.00;;;13.70
20289;BMP180;10303;51.960;8.372;2023-04-24T04:39:23;99038.00;;;13.60
20289;BMP180;10303;51.960;8.372;2023-04-24T04:42:05;99040.00;;;13.50
20289;BMP180;10303;51.960;8.372;2023-04-24T04:44:39;99022.00;;;13.40
20289;BMP180;10303;51.960;8.372;2023-04-24T04:47:09;99051.00;;;13.30
20289;BMP180;10303;51.960;8.372;2023-04-24T04:49:38;99047.00;;;13.20
20289;BMP180;10303;51.960;8.372;2023-04-24T04:52:09;99049.00;;;13.10
20289;BMP180;10303;51.960;8.372;2023-04-24T04:54:36;99039.00;;;13.10
20289;BMP180;10303;51.960;8.372;2023-04-24T04:57:02;99043.00;;;13.10
20289;BMP180;10303;51.960;8.372;2023-04-24T04:59:28;99036.00;;;13.10
20289;BMP180;10303;51.960;8.372;2023-04-24T05:02:01;99033.00;;;13.10
20289;BMP180;10303;51.960;8.372;2023-04-24T05:04:27;99032.00;;;13.10
20289;BMP180;10303;51.960;8.372;2023-04-24T05:06:53;99023.00;;;13.10
20289;BMP180;10303;51.960;8.372;2023-04-24T05:09:20;99028.00;;;13.10
20289;BMP180;10303;51.960;8.372;2023-04-24T05:11:52;99027.00;;;13.20
20289;BMP180;10303;51.960;8.372;2023-04-24T05:14:18;99030.00;;;13.20
20289;BMP180;10303;51.960;8.372;2023-04-24T05:16:45;99027.00;;;13.20
20289;BMP180;10303;51.960;8.372;2023-04-24T05:19:12;99034.00;;;13.20
20289;BMP180;10303;51.960;8.372;2023-04-24T05:21:41;99036.00;;;13.20
20289;BMP180;10303;51.960;8.372;2023-04-24T05:24:08;99029.00;;;13.30
20289;BMP180;10303;51.960;8.372;2023-04-24T05:27:00;99020.00;;;13.30
20289;BMP180;10303;51.960;8.372;2023-04-24T05:29:34;99028.00;;;13.30
20289;BMP180;10303;51.960;8.372;2023-04-24T05:32:00;99031.00;;;13.30
20289;BMP180;10303;51.960;8.372;2023-04-24T05:34:29;99030.00;;;13.30
20289;BMP180;10303;51.960;8.372;2023-04-24T05:36:57;99036.00;;;13.30
20289;BMP180;10303;51.960;8.372;2023-04-24T05:39:23;99028.00;;;13.30
20289;BMP180;10303;51.960;8.372;2023-04-24T05:41:51;99025.00;;;13.30
20289;BMP180;10303;51.960;8.372;2023-04-24T05:44:17;99038.00;;;13.40
20289;BMP180;10303;51.960;8.372;2023-04-24T05:46:43;99030.00;;;13.40
20289;BMP180;10303;51.960;8.372;2023-04-24T05:49:10;99035.00;;;13.40
20289;BMP180;10303;51.960;8.372;2023-04-24T05:51:37;99030.00;;;13.40
20289;BMP180;10303;51.960;8.372;2023-04-24T05:54:05;99039.00;;;13.40
20289;BMP180;10303;51.960;8.372;2023-04-24T05:56:31;99032.00;;;13.40
20289;BMP180;10303;51.960;8.372;2023-04-24T05:58:58;99037.00;;;13.50
20289;BMP180;10303;51.960;8.372;2023-04-24T06:01:24;99048.00;;;13.50
20289;BMP180;10303;51.960;8.372;2023-04-24T06:04:00;99040.00;;;13.50
20289;BMP180;10303;51.960;8.372;2023-04-24T06:06:26;99041.00;;;13.50
20289;BMP180;10303;51.960;8.372;2023-04-24T06:08:53;99034.00;;;13.50
20289;BMP180;10303;51.960;8.372;2023-04-24T06:11:19;99050.00;;;13.50
20289;BMP180;10303;51.960;8.372;2023-04-24T06:13:45;99039.00;;;13.60
20289;BMP180;10303;51.960;8.372;2023-04-24T06:16:44;99049.00;;;13.60
20289;BMP180;10303;51.960;8.372;2023-04-24T06:19:19;99053.00;;;13.60
20289;BMP180;10303;51.960;8.372;2023-04-24T06:21:46;99056.00;;;13.60
20289;BMP180;10303;51.960;8.372;2023-04-24T06:24:14;99043.00;;;13.60
20289;BMP180;10303;51.960;8.372;2023-04-24T06:26:42;99035.00;;;13.60
20289;BMP180;10303;51.960;8.372;2023-04-24T06:29:08;99059.00;;;13.60
20289;BMP180;10303;51.960;8.372;2023-04-24T06:31:35;99056.00;;;13.60
20289;BMP180;10303;51.960;8.372;2023-04-24T06:34:03;99056.00;;;13.60
20289;BMP180;10303;51.960;8.372;2023-04-24T06:36:30;99049.00;;;13.60
20289;BMP180;10303;51.960;8.372;2023-04-24T06:38:56;99058.00;;;13.60
20289;BMP180;10303;51.960;8.372;2023-04-24T06:41:23;99055.00;;;13.60
20289;BMP180;10303;51.960;8.372;2023-04-24T06:43:49;99057.00;;;13.60
20289;BMP180;10303;51.960;8.372;2023-04-24T06:46:15;99061.00;;;13.60
20289;BMP180;10303;51.960;8.372;2023-04-24T06:48:40;99061.00;;;13.60
20289;BMP180;10303;51.960;8.372;2023-04-24T06:51:06;99052.00;;;13.60
20289;BMP180;10303;51.960;8.372;2023-04-24T06:53:32;99055.00;;;13.60
20289;BMP180;10303;51.960;8.372;2023-04-24T06:55:59;99052.00;;;13.70
20289;BMP180;10303;51.960;8.372;2023-04-24T06:58:25;99061.00;;;13.70
20289;BMP180;10303;51.960;8.372;2023-04-24T07:00:51;99064.00;;;13.70
20289;BMP180;10303;51.960;8.372;2023-04-24T07:03:17;99066.00;;;13.70
20289;BMP180;10303;51.960;8.372;2023-04-24T07:05:43;99057.00;;;13.70
20289;BMP180;10303;51.960;8.372;2023-04-24T07:08:09;99054.00;;;13.70
20289;BMP180;10303;51.960;8.372;2023-04-24T07:10:37;99059.00;;;13.70
20289;BMP180;10303;51.960;8.372;2023-04-24T07:13:03;99054.00;;;13.70
20289;BMP180;10303;51.960;8.372;2023-04-24T07:15:29;99052.00;;;13.70
20289;BMP180;10303;51.960;8.372;2023-04-24T07:17:55;99062.00;;;13.70
20289;BMP180;10303;51.960;8.372;2023-04-24T07:20:22;99060.00;;;13.70
20289;BMP180;10303;51.960;8.372;2023-04-24T07:22:48;99059.00;;;13.60
20289;BMP180;10303;51.960;8.372;2023-04-24T07:25:14;99062.00;;;13.70
20289;BMP180;10303;51.960;8.372;2023-04-24T07:27:40;99063.00;;;13.60
20289;BMP180;10303;51.960;8.372;2023-04-24T07:30:07;99070.00;;;13.70
20289;BMP180;10303;51.960;8.372;2023-04-24T07:32:33;99061.00;;;13.70
20289;BMP180;10303;51.960;8.372;2023-04-24T07:34:59;99076.00;;;13.70
20289;BMP180;10303;51.960;8.372;2023-04-24T07:37:25;99080.00;;;13.70
20289;BMP180;10303;51.960;8.372;2023-04-24T07:39:51;99072.00;;;13.70
20289;BMP180;10303;51.960;8.372;2023-04-24T07:42:17;99072.00;;;13.70
20289;BMP180;10303;51.960;8.372;2023-04-24T07:44:43;99071.00;;;13.70
20289;BMP180;10303;51.960;8.372;2023-04-24T07:47:09;99077.00;;;13.70
20289;BMP180;10303;51.960;8.372;2023-04-24T07:49:35;99076.00;;;13.70
20289;BMP180;10303;51.960;8.372;2023-04-24T07:52:01;99073.00;;;13.80
20289;BMP180;10303;51.960;8.372;2023-04-24T07:54:28;99086.00;;;13.80
20289;BMP180;10303;51.960;8.372;2023-04-24T07:56:54;99083.00;;;13.90
20289;BMP180;10303;51.960;8.372;2023-04-24T07:59:20;99079.00;;;13.90
20289;BMP180;10303;51.960;8.372;2023-04-24T08:01:46;99104.00;;;13.90
20289;BMP180;10303;51.960;8.372;2023-04-24T08:04:12;99091.00;;;13.90
20289;BMP180;10303;51.960;8.372;2023-04-24T08:06:38;99091.00;;;13.90
20289;BMP180;10303;51.960;8.372;2023-04-24T08:09:04;99101.00;;;13.90
20289;BMP180;10303;51.960;8.372;2023-04-24T08:11:30;99097.00;;;13.80
20289;BMP180;10303;51.960;8.372;2023-04-24T08:13:57;99112.00;;;13.80
20289;BMP180;10303;51.960;8.372;2023-04-24T08:16:23;99119.00;;;13.70
20289;BMP180;10303;51.960;8.372;2023-04-24T08:18:50;99104.00;;;13.70
20289;BMP180;10303;51.960;8.372;2023-04-24T08:21:17;99101.00;;;13.70
20289;BMP180;10303;51.960;8.372;2023-04-24T08:23:45;99111.00;;;13.80
20289;BMP180;10303;51.960;8.372;2023-04-24T08:26:12;99110.00;;;13.80
20289;BMP180;10303;51.960;8.372;2023-04-24T08:28:38;99106.00;;;13.90
20289;BMP180;10303;51.960;8.372;2023-04-24T08:31:05;99106.00;;;13.90
20289;BMP180;10303;51.960;8.372;2023-04-24T08:33:31;99103.00;;;13.90
20289;BMP180;10303;51.960;8.372;2023-04-24T08:36:05;99109.00;;;13.90
20289;BMP180;10303;51.960;8.372;2023-04-24T08:38:31;99104.00;;;14.00
20289;BMP180;10303;51.960;8.372;2023-04-24T08:41:00;99113.00;;;13.90
20289;BMP180;10303;51.960;8.372;2023-04-24T08:43:27;99115.00;;;13.90
20289;BMP180;10303;51.960;8.372;2023-04-24T08:45:56;99103.00;;;13.90
20289;BMP180;10303;51.960;8.372;2023-04-24T08:48:22;99112.00;;;13.90
20289;BMP180;10303;51.960;8.372;2023-04-24T08:50:50;99107.00;;;13.80
20289;BMP180;10303;51.960;8.372;2023-04-24T08:53:18;99121.00;;;13.80
20289;BMP180;10303;51.960;8.372;2023-04-24T08:55:48;99120.00;;;13.80
20289;BMP180;10303;51.960;8.372;2023-04-24T08:58:16;99111.00;;;13.70
20289;BMP180;10303;51.960;8.372;2023-04-24T09:00:44;99110.00;;;13.70
20289;BMP180;10303;51.960;8.372;2023-04-24T09:03:16;99121.00;;;13.70
20289;BMP180;10303;51.960;8.372;2023-04-24T09:05:44;99117.00;;;13.70
20289;BMP180;10303;51.960;8.372;2023-04-24T09:08:14;99124.00;;;13.70
20289;BMP180;10303;51.960;8.372;2023-04-24T09:10:40;99126.00;;;13.70
20289;BMP180;10303;51.960;8.372;2023-04-24T09:13:07;99113.00;;;13.70
20289;BMP180;10303;51.960;8.372;2023-04-24T09:15:37;99108.00;;;13.70
20289;BMP180;10303;51.960;8.372;2023-04-24T09:18:04;99114.00;;;13.70
20289;BMP180;10303;51.960;8.372;2023-04-24T09:20:31;99116.00;;;13.70
20289;BMP180;10303;51.960;8.372;2023-04-24T09:22:58;99114.00;;;13.70
20289;BMP180;10303;51.960;8.372;2023-04-24T09:25:34;99123.00;;;13.70
20289;BMP180;10303;51.960;8.372;2023-04-24T09:28:04;99129.00;;;13.70
20289;BMP180;10303;51.960;8.372;2023-04-24T09:30:32;99126.00;;;13.70
20289;BMP180;10303;51.960;8.372;2023-04-24T09:33:15;99128.00;;;13.70
20289;BMP180;10303;51.960;8.372;2023-04-24T09:35:42;99121.00;;;13.70
20289;BMP180;10303;51.960;8.372;2023-04-24T09:38:11;99131.00;;;13.70
20289;BMP180;10303;51.960;8.372;2023-04-24T09:40:37;99122.00;;;13.70
20289;BMP180;10303;51.960;8.372;2023-04-24T09:43:03;99140.00;;;13.70
20289;BMP180;10303;51.960;8.372;2023-04-24T09:45:39;99138.00;;;13.60
20289;BMP180;10303;51.960;8.372;2023-04-24T09:48:09;99141.00;;;13.60
20289;BMP180;10303;51.960;8.372;2023-04-24T09:50:35;99136.00;;;13.60
20289;BMP180;10303;51.960;8.372;2023-04-24T09:53:03;99140.00;;;13.60
20289;BMP180;10303;51.960;8.372;2023-04-24T09:55:30;99149.00;;;13.50
20289;BMP180;10303;51.960;8.372;2023-04-24T09:57:59;99145.00;;;13.50
20289;BMP180;10303;51.960;8.372;2023-04-24T10:00:33;99154.00;;;13.40
20289;BMP180;10303;51.960;8.372;2023-04-24T10:03:01;99149.00;;;13.40
20289;BMP180;10303;51.960;8.372;2023-04-24T10:05:35;99141.00;;;13.30
20289;BMP180;10303;51.960;8.372;2023-04-24T10:08:07;99148.00;;;13.30
20289;BMP180;10303;51.960;8.372;2023-04-24T10:10:54;99159.00;;;13.30
20289;BMP180;10303;51.960;8.372;2023-04-24T10:13:21;99152.00;;;13.40
20289;BMP180;10303;51.960;8.372;2023-04-24T10:15:48;99159.00;;;13.50
20289;BMP180;10303;51.960;8.372;2023-04-24T10:18:16;99158.00;;;13.50
20289;BMP180;10303;51.960;8.372;2023-04-24T10:20:42;99162.00;;;13.50
20289;BMP180;10303;51.960;8.372;2023-04-24T10:23:08;99167.00;;;13.50
20289;BMP180;10303;51.960;8.372;2023-04-24T10:25:36;99165.00;;;13.50
20289;BMP180;10303;51.960;8.372;2023-04-24T10:28:06;99157.00;;;13.50
20289;BMP180;10303;51.960;8.372;2023-04-24T10:30:35;99175.00;;;13.50
20289;BMP180;10303;51.960;8.372;2023-04-24T10:33:07;99185.00;;;13.40
20289;BMP180;10303;51.960;8.372;2023-04-24T10:35:45;99185.00;;;13.30
20289;BMP180;10303;51.960;8.372;2023-04-24T10:38:23;99179.00;;;13.30
20289;BMP180;10303;51.960;8.372;2023-04-24T10:40:50;99182.00;;;13.20
20289;BMP180;10303;51.960;8.372;2023-04-24T10:43:18;99183.00;;;13.20
20289;BMP180;10303;51.960;8.372;2023-04-24T10:46:01;99189.00;;;13.20
20289;BMP180;10303;51.960;8.372;2023-04-24T10:48:29;99186.00;;;13.20
20289;BMP180;10303;51.960;8.372;2023-04-24T10:50:55;99197.00;;;13.10
20289;BMP180;10303;51.960;8.372;2023-04-24T10:53:28;99197.00;;;13.10
20289;BMP180;10303;51.960;8.372;2023-04-24T10:58:43;99216.00;;;13.00
20289;BMP180;10303;51.960;8.372;2023-04-24T11:01:29;99238.00;;;13.00
20289;BMP180;10303;51.960;8.372;2023-04-24T11:04:02;99234.00;;;12.90
20289;BMP180;10303;51.960;8.372;2023-04-24T11:06:37;99230.00;;;12.90
20289;BMP180;10303;51.960;8.372;2023-04-24T11:09:10;99236.00;;;12.90
20289;BMP180;10303;51.960;8.372;2023-04-24T11:11:44;99246.00;;;13.00
20289;BMP180;10303;51.960;8.372;2023-04-24T11:14:15;99241.00;;;13.00
20289;BMP180;10303;51.960;8.372;2023-04-24T11:16:54;99260.00;;;12.90
20289;BMP180;10303;51.960;8.372;2023-04-24T11:19:25;99255.00;;;12.90
20289;BMP180;10303;51.960;8.372;2023-04-24T11:21:58;99263.00;;;12.70
20289;BMP180;10303;51.960;8.372;2023-04-24T11:35:04;99281.00;;;12.60
20289;BMP180;10303;51.960;8.372;2023-04-24T11:37:40;99272.00;;;12.60
20289;BMP180;10303;51.960;8.372;2023-04-24T11:40:10;99289.00;;;12.50
20289;BMP180;10303;51.960;8.372;2023-04-24T11:42:39;99286.00;;;12.60
20289;BMP180;10303;51.960;8.372;2023-04-24T11:45:13;99293.00;;;12.50
20289;BMP180;10303;51.960;8.372;2023-04-24T11:47:40;99292.00;;;12.50
20289;BMP180;10303;51.960;8.372;2023-04-24T11:50:13;99300.00;;;12.50
20289;BMP180;10303;51.960;8.372;2023-04-24T11:52:42;99300.00;;;12.30
20289;BMP180;10303;51.960;8.372;2023-04-24T11:55:29;99328.00;;;12.20
20289;BMP180;10303;51.960;8.372;2023-04-24T11:57:58;99332.00;;;12.00
20289;BMP180;10303;51.960;8.372;2023-04-24T12:00:27;99325.00;;;11.70
20289;BMP180;10303;51.960;8.372;2023-04-24T12:03:08;99335.00;;;11.50
20289;BMP180;10303;51.960;8.372;2023-04-24T12:05:35;99344.00;;;11.20
20289;BMP180;10303;51.960;8.372;2023-04-24T12:08:01;99354.00;;;11.20
20289;BMP180;10303;51.960;8.372;2023-04-24T12:10:30;99351.00;;;11.00
20289;BMP180;10303;51.960;8.372;2023-04-24T12:12:58;99353.00;;;11.00
20289;BMP180;10303;51.960;8.372;2023-04-24T12:15:26;99358.00;;;11.10
20289;BMP180;10303;51.960;8.372;2023-04-24T12:17:54;99371.00;;;11.00
20289;BMP180;10303;51.960;8.372;2023-04-24T12:20:31;99366.00;;;11.00
20289;BMP180;10303;51.960;8.372;2023-04-24T12:23:00;99379.00;;;11.00
20289;BMP180;10303;51.960;8.372;2023-04-24T12:25:29;99392.00;;;11.00
20289;BMP180;10303;51.960;8.372;2023-04-24T12:30:39;99410.00;;;11.00
20289;BMP180;10303;51.960;8.372;2023-04-24T12:33:05;99403.00;;;11.20
20289;BMP180;10303;51.960;8.372;2023-04-24T12:35:33;99395.00;;;11.30
20289;BMP180;10303;51.960;8.372;2023-04-24T12:38:12;99400.00;;;11.40
20289;BMP180;10303;51.960;8.372;2023-04-24T12:40:41;99399.00;;;11.50
20289;BMP180;10303;51.960;8.372;2023-04-24T12:43:18;99430.00;;;11.50
20289;BMP180;10303;51.960;8.372;2023-04-24T12:45:45;99423.00;;;11.50
20289;BMP180;10303;51.960;8.372;2023-04-24T12:48:12;99421.00;;;11.60
20289;BMP180;10303;51.960;8.372;2023-04-24T12:50:39;99428.00;;;11.60
20289;BMP180;10303;51.960;8.372;2023-04-24T12:53:07;99424.00;;;11.70
20289;BMP180;10303;51.960;8.372;2023-04-24T12:55:34;99424.00;;;11.70
20289;BMP180;10303;51.960;8.372;2023-04-24T12:58:00;99423.00;;;11.70
20289;BMP180;10303;51.960;8.372;2023-04-24T13:00:27;99435.00;;;11.70
20289;BMP180;10303;51.960;8.372;2023-04-24T13:02:53;99420.00;;;11.70
20289;BMP180;10303;51.960;8.372;2023-04-24T13:05:20;99441.00;;;11.50
20289;BMP180;10303;51.960;8.372;2023-04-24T13:07:46;99442.00;;;11.40
20289;BMP180;10303;51.960;8.372;2023-04-24T13:10:12;99441.00;;;11.40
20289;BMP180;10303;51.960;8.372;2023-04-24T13:12:39;99442.00;;;11.20
20289;BMP180;10303;51.960;8.372;2023-04-24T13:15:06;99451.00;;;11.30
20289;BMP180;10303;51.960;8.372;2023-04-24T13:17:33;99454.00;;;11.40
20289;BMP180;10303;51.960;8.372;2023-04-24T13:19:59;99458.00;;;11.40
20289;BMP180;10303;51.960;8.372;2023-04-24T13:22:25;99464.00;;;11.40
20289;BMP180;10303;51.960;8.372;2023-04-24T13:24:51;99468.00;;;11.40
20289;BMP180;10303;51.960;8.372;2023-04-24T13:27:18;99455.00;;;11.30
20289;BMP180;10303;51.960;8.372;2023-04-24T13:29:44;99468.00;;;11.10
20289;BMP180;10303;51.960;8.372;2023-04-24T13:32:10;99467.00;;;11.20
20289;BMP180;10303;51.960;8.372;2023-04-24T13:34:36;99465.00;;;11.30
20289;BMP180;10303;51.960;8.372;2023-04-24T13:37:03;99470.00;;;11.30
20289;BMP180;10303;51.960;8.372;2023-04-24T13:39:29;99474.00;;;11.40
20289;BMP180;10303;51.960;8.372;2023-04-24T13:41:56;99478.00;;;11.50
20289;BMP180;10303;51.960;8.372;2023-04-24T13:44:23;99482.00;;;11.50
20289;BMP180;10303;51.960;8.372;2023-04-24T13:46:53;99471.00;;;11.60
20289;BMP180;10303;51.960;8.372;2023-04-24T13:49:21;99480.00;;;11.60
20289;BMP180;10303;51.960;8.372;2023-04-24T13:51:48;99474.00;;;11.60
20289;BMP180;10303;51.960;8.372;2023-04-24T13:54:14;99475.00;;;11.60
20289;BMP180;10303;51.960;8.372;2023-04-24T13:56:40;99474.00;;;11.60
20289;BMP180;10303;51.960;8.372;2023-04-24T13:59:06;99480.00;;;11.60
20289;BMP180;10303;51.960;8.372;2023-04-24T14:01:32;99482.00;;;11.60
20289;BMP180;10303;51.960;8.372;2023-04-24T14:03:58;99482.00;;;11.70
20289;BMP180;10303;51.960;8.372;2023-04-24T14:06:25;99475.00;;;11.70
20289;BMP180;10303;51.960;8.372;2023-04-24T14:08:52;99482.00;;;11.80
20289;BMP180;10303;51.960;8.372;2023-04-24T14:11:19;99473.00;;;11.90
20289;BMP180;10303;51.960;8.372;2023-04-24T14:13:46;99484.00;;;11.80
20289;BMP180;10303;51.960;8.372;2023-04-24T14:16:13;99473.00;;;11.80
20289;BMP180;10303;51.960;8.372;2023-04-24T14:18:40;99489.00;;;11.90
20289;BMP180;10303;51.960;8.372;2023-04-24T14:21:06;99498.00;;;11.70
20289;BMP180;10303;51.960;8.372;2023-04-24T14:23:32;99493.00;;;11.80
20289;BMP180;10303;51.960;8.372;2023-04-24T14:25:58;99500.00;;;11.90
20289;BMP180;10303;51.960;8.372;2023-04-24T14:28:25;99505.00;;;11.90
20289;BMP180;10303;51.960;8.372;2023-04-24T14:30:52;99501.00;;;12.00